createdAt,value
2022-10-14T00:01:44.021Z,88.25
2022-10-14T00:04:13.743Z,82.00
2022-10-14T00:06:43.168Z,88.50
2022-10-14T00:09:13.518Z,87.75
2022-10-14T00:11:42.974Z,84.50
2022-10-14T00:14:17.485Z,88.50
2022-10-14T00:16:47.553Z,83.75
2022-10-14T00:19:17.348Z,83.50
2022-10-14T00:21:48.346Z,95.00
2022-10-14T00:24:18.775Z,86.50
2022-10-14T00:26:48.501Z,82.50
2022-10-14T00:29:21.132Z,84.25
2022-10-14T00:31:53.038Z,83.00
2022-10-14T00:34:22.513Z,77.75
2022-10-14T00:36:52.083Z,78.75
2022-10-14T00:39:23.066Z,88.75
2022-10-14T00:41:52.912Z,81.50
2022-10-14T00:44:22.244Z,87.75
2022-10-14T00:46:52.544Z,77.50
2022-10-14T00:49:33.337Z,81.25
2022-10-14T00:52:06.113Z,80.75
2022-10-14T00:54:39.739Z,86.75
2022-10-14T00:57:09.673Z,80.50
2022-10-14T00:59:39.417Z,74.50
2022-10-14T01:02:08.934Z,80.25
2022-10-14T01:04:41.263Z,75.75
2022-10-14T01:07:11.715Z,82.25
2022-10-14T01:09:45.204Z,78.75
2022-10-14T01:12:35.648Z,77.00
2022-10-14T01:15:06.411Z,78.00
2022-10-14T01:17:58.825Z,77.75
2022-10-14T01:20:41.014Z,77.50
2022-10-14T01:23:50.166Z,75.75
2022-10-14T01:26:28.555Z,86.00
2022-10-14T01:29:15.940Z,82.75
2022-10-14T01:31:52.602Z,79.75
2022-10-14T01:34:25.644Z,78.50
2022-10-14T01:37:00.705Z,87.00
2022-10-14T01:39:33.508Z,89.50
2022-10-14T01:42:07.531Z,85.75
2022-10-14T01:44:39.994Z,77.75
2022-10-14T01:47:11.549Z,84.25
2022-10-14T01:49:50.071Z,86.75
2022-10-14T01:52:25.672Z,83.50
2022-10-14T01:54:58.033Z,86.00
2022-10-14T01:57:31.401Z,118.75
2022-10-14T02:00:02.193Z,113.50
2022-10-14T02:02:42.829Z,127.25
2022-10-14T02:05:24.213Z,131.75
2022-10-14T02:07:58.906Z,133.75
2022-10-14T02:10:44.016Z,143.50
2022-10-14T02:13:17.002Z,140.00
2022-10-14T02:15:46.770Z,135.75
2022-10-14T02:18:36.260Z,134.75
2022-10-14T02:21:19.630Z,134.00
2022-10-14T02:23:52.350Z,133.00
2022-10-14T02:26:22.705Z,122.50
2022-10-14T02:28:52.831Z,127.00
2022-10-14T02:31:23.061Z,130.50
2022-10-14T02:33:55.533Z,124.00
2022-10-14T02:36:26.909Z,118.75
2022-10-14T02:38:58.275Z,113.50
2022-10-14T02:41:29.314Z,128.50
2022-10-14T02:43:59.567Z,129.25
2022-10-14T02:46:30.500Z,115.50
2022-10-14T02:49:00.508Z,102.25
2022-10-14T02:51:30.040Z,109.25
2022-10-14T02:54:00.660Z,111.00
2022-10-14T02:56:30.980Z,107.25
2022-10-14T02:59:02.793Z,108.25
2022-10-14T03:01:37.382Z,107.50
2022-10-14T03:04:10.428Z,107.50
2022-10-14T03:06:41.390Z,102.75
2022-10-14T03:09:10.921Z,110.75
2022-10-14T03:11:42.929Z,99.00
2022-10-14T03:14:17.574Z,98.25
2022-10-14T03:16:49.445Z,98.50
2022-10-14T03:19:23.943Z,108.25
2022-10-14T03:21:57.227Z,105.50
2022-10-14T03:24:28.427Z,112.75
2022-10-14T03:27:20.425Z,102.00
2022-10-14T03:29:54.751Z,107.25
2022-10-14T03:32:26.430Z,96.50
2022-10-14T03:35:14.667Z,101.00
2022-10-14T03:37:47.560Z,108.75
2022-10-14T03:40:20.494Z,95.00
2022-10-14T03:42:50.437Z,105.00
2022-10-14T03:45:19.924Z,102.00
2022-10-14T03:47:50.464Z,107.75
2022-10-14T03:50:19.941Z,109.50
2022-10-14T03:52:55.750Z,98.25
2022-10-14T03:55:37.345Z,109.75
2022-10-14T03:58:08.018Z,97.50
2022-10-14T04:00:37.693Z,98.50
2022-10-14T04:03:29.823Z,104.75
2022-10-14T04:05:59.252Z,107.25
2022-10-14T04:08:31.051Z,94.00
2022-10-14T04:11:08.237Z,90.50
2022-10-14T04:13:40.831Z,86.25
2022-10-14T04:16:11.302Z,91.75
2022-10-14T04:19:00.273Z,90.25
2022-10-14T04:21:29.878Z,91.75
2022-10-14T04:24:02.689Z,78.50
2022-10-14T04:26:54.763Z,98.25
2022-10-14T04:29:54.332Z,84.00
2022-10-14T04:32:29.870Z,78.75
2022-10-14T04:34:59.714Z,81.25
2022-10-14T04:37:32.906Z,83.75
2022-10-14T04:40:08.478Z,79.25
2022-10-14T04:42:44.793Z,83.75
2022-10-14T04:45:23.055Z,78.50
2022-10-14T04:47:59.145Z,82.75
2022-10-14T04:50:29.338Z,80.25
2022-10-14T04:53:21.074Z,82.25
2022-10-14T04:56:14.738Z,84.25
2022-10-14T04:58:55.573Z,79.75
2022-10-14T05:01:34.729Z,80.50
2022-10-14T05:04:04.957Z,80.75
2022-10-14T05:06:40.262Z,78.25
2022-10-14T05:09:12.922Z,78.25
2022-10-14T05:11:42.577Z,78.00
2022-10-14T05:14:15.116Z,73.75
2022-10-14T05:16:49.026Z,73.75
2022-10-14T05:19:26.434Z,78.75
2022-10-14T05:21:56.670Z,72.75
2022-10-14T05:24:35.392Z,75.75
2022-10-14T05:27:05.558Z,77.00
2022-10-14T05:29:37.007Z,74.25
2022-10-14T05:32:06.977Z,71.25
2022-10-14T05:34:52.422Z,71.75
2022-10-14T05:37:30.352Z,71.75
2022-10-14T05:40:00.006Z,71.25
2022-10-14T05:42:29.858Z,74.75
2022-10-14T05:45:01.179Z,72.50
2022-10-14T05:47:32.565Z,74.50
2022-10-14T05:50:12.156Z,72.25
2022-10-14T05:52:44.785Z,72.75
2022-10-14T05:55:42.787Z,72.00
2022-10-14T05:58:12.327Z,71.50
2022-10-14T06:00:44.732Z,68.50
2022-10-14T06:03:19.586Z,71.50
2022-10-14T06:05:49.043Z,73.50
2022-10-14T06:08:18.567Z,73.50
2022-10-14T06:10:48.661Z,67.50
2022-10-14T06:13:18.248Z,70.75
2022-10-14T06:15:49.637Z,68.50
2022-10-14T06:18:19.856Z,70.25
2022-10-14T06:20:56.808Z,67.75
2022-10-14T06:23:26.278Z,71.00
2022-10-14T06:25:55.873Z,69.25
2022-10-14T06:28:25.306Z,69.75
2022-10-14T06:30:55.326Z,72.75
2022-10-14T06:33:24.791Z,72.75
2022-10-14T06:35:54.212Z,68.25
2022-10-14T06:38:23.986Z,66.50
2022-10-14T06:40:53.794Z,65.00
2022-10-14T06:43:23.812Z,66.25
2022-10-14T06:45:54.156Z,70.25
2022-10-14T06:48:24.295Z,67.25
2022-10-14T06:50:53.953Z,64.25
2022-10-14T06:53:23.366Z,63.25
2022-10-14T06:55:58.703Z,69.50
2022-10-14T06:58:28.485Z,69.25
2022-10-14T07:03:32.444Z,70.50
2022-10-14T07:06:04.464Z,65.50
2022-10-14T07:08:34.351Z,65.50
2022-10-14T07:11:04.863Z,64.00
2022-10-14T07:13:35.939Z,61.75
2022-10-14T07:16:05.799Z,64.75
2022-10-14T07:18:35.236Z,66.50
2022-10-14T07:21:05.549Z,63.50
2022-10-14T07:23:35.272Z,64.00
2022-10-14T07:26:04.850Z,66.75
2022-10-14T07:28:35.507Z,62.00
2022-10-14T07:31:06.957Z,61.25
2022-10-14T07:36:16.045Z,59.00
2022-10-14T07:38:49.587Z,64.50
2022-10-14T07:41:21.907Z,62.50
2022-10-14T07:43:53.862Z,67.00
2022-10-14T07:46:34.439Z,66.25
2022-10-14T07:49:06.990Z,60.75
2022-10-14T07:51:37.548Z,60.50
2022-10-14T07:54:11.110Z,64.00
2022-10-14T07:56:41.644Z,62.00
2022-10-14T07:59:11.550Z,61.25
2022-10-14T08:01:41.201Z,63.25
2022-10-14T08:04:12.102Z,61.25
2022-10-14T08:06:41.742Z,57.25
2022-10-14T08:09:12.266Z,60.25
2022-10-14T08:11:42.088Z,62.00
2022-10-14T08:14:11.640Z,64.00
2022-10-14T08:16:41.140Z,59.50
2022-10-14T08:19:14.502Z,63.50
2022-10-14T08:21:45.203Z,57.50
2022-10-14T08:24:14.738Z,56.75
2022-10-14T08:26:58.385Z,56.00
2022-10-14T08:29:28.784Z,56.25
2022-10-14T08:31:58.189Z,59.25
2022-10-14T08:34:28.076Z,59.00
2022-10-14T08:36:57.536Z,55.50
2022-10-14T08:39:27.024Z,63.25
2022-10-14T08:42:08.683Z,58.50
2022-10-14T08:44:57.126Z,53.00
2022-10-14T08:47:29.829Z,58.00
2022-10-14T08:50:03.452Z,56.25
2022-10-14T08:52:37.204Z,53.25
2022-10-14T08:55:20.756Z,58.50
2022-10-14T08:57:58.527Z,59.00
2022-10-14T09:00:30.145Z,55.50
2022-10-14T09:03:00.427Z,54.50
2022-10-14T09:05:30.362Z,61.50
2022-10-14T09:08:00.402Z,65.00
2022-10-14T09:10:34.112Z,68.75
2022-10-14T09:13:13.205Z,79.25
2022-10-14T09:15:44.826Z,72.25
2022-10-14T09:18:22.083Z,78.75
2022-10-14T09:20:53.742Z,82.25
2022-10-14T09:23:27.115Z,94.25
2022-10-14T09:26:12.957Z,78.25
2022-10-14T09:28:46.555Z,80.50
2022-10-14T09:31:16.624Z,85.00
2022-10-14T09:33:46.575Z,85.25
2022-10-14T09:36:23.463Z,85.75
2022-10-14T09:38:54.994Z,81.00
2022-10-14T09:41:32.467Z,78.00
2022-10-14T09:44:19.828Z,79.25
2022-10-14T09:46:52.034Z,74.50
2022-10-14T09:49:27.321Z,78.50
2022-10-14T09:51:58.437Z,76.75
2022-10-14T09:54:30.537Z,75.50
2022-10-14T09:57:10.378Z,76.50
2022-10-14T09:59:52.558Z,80.75
2022-10-14T10:02:27.049Z,74.00
2022-10-14T10:04:58.675Z,82.75
2022-10-14T10:07:32.113Z,83.50
2022-10-14T10:10:03.629Z,88.00
2022-10-14T10:12:35.214Z,96.25
2022-10-14T10:15:07.356Z,96.00
2022-10-14T10:17:40.374Z,91.50
2022-10-14T10:20:10.748Z,88.25
2022-10-14T10:22:40.730Z,84.75
2022-10-14T10:25:10.094Z,80.75
2022-10-14T10:27:39.623Z,83.00
2022-10-14T10:30:25.775Z,84.75
2022-10-14T10:32:58.591Z,81.25
2022-10-14T10:35:34.101Z,77.75
2022-10-14T10:38:17.941Z,78.50
2022-10-14T10:40:48.660Z,83.00
2022-10-14T10:43:29.308Z,77.75
2022-10-14T10:46:15.324Z,76.50
2022-10-14T10:48:55.778Z,80.50
2022-10-14T10:51:30.811Z,88.50
2022-10-14T10:54:34.422Z,76.25
2022-10-14T10:57:14.724Z,84.25
2022-10-14T10:59:57.702Z,86.00
2022-10-14T11:02:45.594Z,80.75
2022-10-14T11:05:23.500Z,86.25
2022-10-14T11:08:21.424Z,79.25
2022-10-14T11:11:19.728Z,79.00
2022-10-14T11:13:55.978Z,77.50
2022-10-14T11:16:44.061Z,75.00
2022-10-14T11:19:17.488Z,79.75
2022-10-14T11:21:47.128Z,79.00
2022-10-14T11:24:41.606Z,87.75
2022-10-14T11:27:19.714Z,84.25
2022-10-14T11:30:04.379Z,76.50
2022-10-14T11:32:37.567Z,77.50
2022-10-14T11:35:27.591Z,82.00
2022-10-14T11:38:03.995Z,79.75
2022-10-14T11:40:52.259Z,78.00
2022-10-14T11:43:44.720Z,79.50
2022-10-14T11:46:15.974Z,77.25
2022-10-14T11:48:48.705Z,87.00
2022-10-14T11:51:18.565Z,77.25
2022-10-14T11:53:57.051Z,77.25
2022-10-14T11:56:44.911Z,77.75
2022-10-14T11:59:26.454Z,74.75
2022-10-14T12:01:59.904Z,77.50
2022-10-14T12:04:32.998Z,75.00
2022-10-14T12:07:24.292Z,76.00
2022-10-14T12:09:59.087Z,81.75
2022-10-14T12:12:30.873Z,74.25
2022-10-14T12:15:02.571Z,77.75
2022-10-14T12:17:48.124Z,77.75
2022-10-14T12:20:36.222Z,75.25
2022-10-14T12:23:08.782Z,84.00
2022-10-14T12:25:57.267Z,77.25
2022-10-14T12:28:27.474Z,76.25
2022-10-14T12:31:18.866Z,77.00
2022-10-14T12:34:07.901Z,77.50
2022-10-14T12:36:38.181Z,76.75
2022-10-14T12:39:34.135Z,75.25
2022-10-14T12:42:05.230Z,76.25
2022-10-14T12:44:54.049Z,75.75
2022-10-14T12:47:25.784Z,76.50
2022-10-14T12:49:57.792Z,78.25
2022-10-14T12:52:47.522Z,77.00
2022-10-14T12:55:19.081Z,77.00
2022-10-14T12:57:56.635Z,75.25
2022-10-14T13:00:26.567Z,77.75
2022-10-14T13:03:02.134Z,77.50
2022-10-14T13:05:40.075Z,78.25
2022-10-14T13:08:19.153Z,77.00
2022-10-14T13:10:52.227Z,75.25
2022-10-14T13:13:50.748Z,73.50
2022-10-14T13:16:23.945Z,83.25
2022-10-14T13:19:00.086Z,77.00
2022-10-14T13:21:39.296Z,86.75
2022-10-14T13:24:09.147Z,78.00
2022-10-14T13:26:57.176Z,74.75
2022-10-14T13:29:31.817Z,81.00
2022-10-14T13:32:02.161Z,78.75
2022-10-14T13:34:50.269Z,85.25
2022-10-14T13:37:33.526Z,78.50
2022-10-14T13:40:10.319Z,79.50
2022-10-14T13:42:41.875Z,80.00
2022-10-14T13:45:13.936Z,77.50
2022-10-14T13:47:52.112Z,85.25
2022-10-14T13:50:24.211Z,78.75
2022-10-14T13:52:59.580Z,79.75
2022-10-14T13:55:31.229Z,82.00
2022-10-14T13:58:18.438Z,86.25
2022-10-14T14:00:54.602Z,77.00
2022-10-14T14:03:31.555Z,78.75
2022-10-14T14:06:01.929Z,81.00
2022-10-14T14:08:40.892Z,84.75
2022-10-14T14:11:19.209Z,81.50
2022-10-14T14:14:01.039Z,77.25
2022-10-14T14:16:36.559Z,80.25
2022-10-14T14:19:09.334Z,88.75
2022-10-14T14:21:40.160Z,79.00
2022-10-14T14:24:17.629Z,85.25
2022-10-14T14:26:56.723Z,82.00
2022-10-14T14:29:31.845Z,86.25
2022-10-14T14:32:07.630Z,75.75
2022-10-14T14:34:40.799Z,86.50
2022-10-14T14:40:09.884Z,81.25
2022-10-14T14:42:42.218Z,84.75
2022-10-14T14:45:22.170Z,85.25
2022-10-14T14:47:53.220Z,87.00
2022-10-14T14:50:39.841Z,78.25
2022-10-14T14:53:14.235Z,92.00
2022-10-14T14:55:56.552Z,78.25
2022-10-14T14:58:31.929Z,79.75
2022-10-14T15:01:02.236Z,87.75
2022-10-14T15:03:33.920Z,89.50
2022-10-14T15:06:06.229Z,81.75
2022-10-14T15:08:39.653Z,85.25
2022-10-14T15:11:11.126Z,90.25
2022-10-14T15:13:41.719Z,95.75
2022-10-14T15:16:11.790Z,92.50
2022-10-14T15:18:45.041Z,87.25
2022-10-14T15:21:17.577Z,89.50
2022-10-14T15:24:01.956Z,91.25
2022-10-14T15:26:38.051Z,88.75
2022-10-14T15:29:17.654Z,88.00
2022-10-14T15:32:07.147Z,95.50
2022-10-14T15:34:38.923Z,89.00
2022-10-14T15:37:15.162Z,80.50
2022-10-14T15:39:45.330Z,81.00
2022-10-14T15:42:16.678Z,89.75
2022-10-14T15:44:46.759Z,90.75
2022-10-14T15:47:21.624Z,86.00
2022-10-14T15:49:52.416Z,89.00
2022-10-14T15:52:24.513Z,87.00
2022-10-14T15:54:59.812Z,85.75
2022-10-14T15:57:30.203Z,80.50
2022-10-14T16:00:00.679Z,92.50
2022-10-14T16:02:42.661Z,90.25
2022-10-14T16:05:20.940Z,88.75
2022-10-14T16:07:51.235Z,96.25
2022-10-14T16:10:22.348Z,94.75
2022-10-14T16:12:52.571Z,90.50
2022-10-14T16:15:22.681Z,94.50
2022-10-14T16:17:53.192Z,99.25
2022-10-14T16:20:23.655Z,96.75
2022-10-14T16:22:53.639Z,95.00
2022-10-14T16:25:25.756Z,99.00
2022-10-14T16:27:55.897Z,89.75
2022-10-14T16:30:26.957Z,98.50
2022-10-14T16:32:57.357Z,87.50
2022-10-14T16:35:27.045Z,92.25
2022-10-14T16:37:56.916Z,87.50
2022-10-14T16:40:26.596Z,89.00
2022-10-14T16:42:56.235Z,98.00
2022-10-14T16:45:25.758Z,88.25
2022-10-14T16:47:55.629Z,87.50
2022-10-14T16:50:25.166Z,94.25
2022-10-14T16:53:12.551Z,98.75
2022-10-14T16:55:42.152Z,95.00
2022-10-14T16:58:11.514Z,91.25
2022-10-14T17:00:41.015Z,97.75
2022-10-14T17:03:13.401Z,93.00
2022-10-14T17:05:43.031Z,93.50
2022-10-14T17:08:13.276Z,102.75
2022-10-14T17:10:44.046Z,96.75
2022-10-14T17:13:14.027Z,93.75
2022-10-14T17:15:43.512Z,93.00
2022-10-14T17:18:13.601Z,98.25
2022-10-14T17:20:45.313Z,89.25
2022-10-14T17:23:14.712Z,90.75
2022-10-14T17:25:47.595Z,98.25
2022-10-14T17:28:17.099Z,96.50
2022-10-14T17:30:46.573Z,96.25
2022-10-14T17:33:16.149Z,101.75
2022-10-14T17:35:45.788Z,103.75
2022-10-14T17:38:15.284Z,96.50
2022-10-14T17:40:44.695Z,100.25
2022-10-14T17:43:15.920Z,101.50
2022-10-14T17:45:45.373Z,89.50
2022-10-14T17:48:18.351Z,98.25
2022-10-14T17:50:50.904Z,95.75
2022-10-14T17:53:20.375Z,105.00
2022-10-14T17:55:51.651Z,98.00
2022-10-14T17:58:24.639Z,95.00
2022-10-14T18:00:54.185Z,85.25
2022-10-14T18:03:23.672Z,90.50
2022-10-14T18:05:53.086Z,91.75
2022-10-14T18:08:22.675Z,86.25
2022-10-14T18:10:52.119Z,93.50
2022-10-14T18:13:21.604Z,91.00
2022-10-14T18:15:51.051Z,94.50
2022-10-14T18:18:20.476Z,86.00
2022-10-14T18:20:49.915Z,88.50
2022-10-14T18:23:19.372Z,96.00
2022-10-14T18:25:49.436Z,91.50
2022-10-14T18:28:19.027Z,93.00
2022-10-14T18:30:48.485Z,89.25
2022-10-14T18:33:17.990Z,90.50
2022-10-14T18:35:49.236Z,88.00
2022-10-14T18:38:18.613Z,100.00
2022-10-14T18:40:47.978Z,101.25
2022-10-14T18:43:17.354Z,99.25
2022-10-14T18:45:46.879Z,87.50
2022-10-14T18:48:17.048Z,86.50
2022-10-14T18:50:46.837Z,89.75
2022-10-14T18:53:16.258Z,99.25
2022-10-14T18:55:46.009Z,93.00
2022-10-14T18:58:15.396Z,92.00
2022-10-14T19:00:45.112Z,89.75
2022-10-14T19:03:14.633Z,92.75
2022-10-14T19:05:45.597Z,89.75
2022-10-14T19:08:15.680Z,99.75
2022-10-14T19:10:45.291Z,91.25
2022-10-14T19:13:14.761Z,89.25
2022-10-14T19:15:48.775Z,88.75
2022-10-14T19:18:19.675Z,91.25
2022-10-14T19:20:57.632Z,89.00
2022-10-14T19:23:27.334Z,90.50
2022-10-14T19:25:57.658Z,95.00
2022-10-14T19:28:27.867Z,99.25
2022-10-14T19:30:57.333Z,90.25
2022-10-14T19:33:26.822Z,86.50
2022-10-14T19:36:00.233Z,89.25
2022-10-14T19:38:31.290Z,91.00
2022-10-14T19:41:04.904Z,90.00
2022-10-14T19:43:35.079Z,93.00
2022-10-14T19:46:08.786Z,88.50
2022-10-14T19:48:39.030Z,90.25
2022-10-14T19:51:12.425Z,90.75
2022-10-14T19:53:42.365Z,92.00
2022-10-14T19:56:13.325Z,99.75
2022-10-14T19:58:44.825Z,87.00
2022-10-14T20:01:16.769Z,95.00
2022-10-14T20:03:47.083Z,85.25
2022-10-14T20:06:16.892Z,89.25
2022-10-14T20:08:47.415Z,96.00
2022-10-14T20:11:19.312Z,91.25
2022-10-14T20:13:49.238Z,93.75
2022-10-14T20:16:19.329Z,94.75
2022-10-14T20:18:48.730Z,90.75
2022-10-14T20:21:18.382Z,97.50
2022-10-14T20:23:47.895Z,94.75
2022-10-14T20:26:18.856Z,99.50
2022-10-14T20:28:48.885Z,103.50
2022-10-14T20:31:20.198Z,89.25
2022-10-14T20:33:50.296Z,88.00
2022-10-14T20:36:21.569Z,103.75
2022-10-14T20:38:51.524Z,90.00
2022-10-14T20:41:20.951Z,98.50
2022-10-14T20:43:50.626Z,89.50
2022-10-14T20:46:20.636Z,89.50
2022-10-14T20:48:50.145Z,95.00
2022-10-14T20:51:20.897Z,91.00
2022-10-14T20:53:50.578Z,94.25
2022-10-14T20:56:20.003Z,98.25
2022-10-14T20:58:49.461Z,90.00
2022-10-14T21:01:19.594Z,97.75
2022-10-14T21:03:49.311Z,87.50
2022-10-14T21:06:23.372Z,95.50
2022-10-14T21:08:53.517Z,93.50
2022-10-14T21:11:24.301Z,92.75
2022-10-14T21:13:55.183Z,95.50
2022-10-14T21:16:26.233Z,99.75
2022-10-14T21:18:58.058Z,100.25
2022-10-14T21:21:32.736Z,98.50
2022-10-14T21:24:02.211Z,87.75
2022-10-14T21:26:32.262Z,102.75
2022-10-14T21:29:03.589Z,106.25
2022-10-14T21:31:33.635Z,91.75
2022-10-14T21:34:06.075Z,93.75
2022-10-14T21:36:36.881Z,87.75
2022-10-14T21:39:13.745Z,105.75
2022-10-14T21:41:43.509Z,100.50
2022-10-14T21:44:16.158Z,84.50
2022-10-14T21:46:46.658Z,95.25
2022-10-14T21:49:16.703Z,90.00
2022-10-14T21:51:46.326Z,97.00
2022-10-14T21:54:15.985Z,94.25
2022-10-14T21:56:45.523Z,91.75
2022-10-14T21:59:15.011Z,99.75
2022-10-14T22:01:44.755Z,87.75
2022-10-14T22:04:14.258Z,100.75
2022-10-14T22:06:43.675Z,92.25
2022-10-14T22:09:13.133Z,97.50
2022-10-14T22:11:43.080Z,97.00
2022-10-14T22:14:14.013Z,106.50
2022-10-14T22:16:43.483Z,99.25
2022-10-14T22:19:13.611Z,100.50
2022-10-14T22:21:43.589Z,103.25
2022-10-14T22:24:13.251Z,100.00
2022-10-14T22:26:43.021Z,99.50
2022-10-14T22:29:15.072Z,100.75
2022-10-14T22:31:45.003Z,92.00
2022-10-14T22:34:16.214Z,102.75
2022-10-14T22:36:47.132Z,95.50
2022-10-14T22:39:17.549Z,100.50
2022-10-14T22:41:47.069Z,95.25
2022-10-14T22:44:16.474Z,100.50
2022-10-14T22:46:45.894Z,105.25
2022-10-14T22:49:15.390Z,98.75
2022-10-14T22:51:44.838Z,102.50
2022-10-14T22:54:14.304Z,102.25
2022-10-14T22:56:43.731Z,101.25
2022-10-14T22:59:13.635Z,96.00
2022-10-14T23:01:43.839Z,101.25
2022-10-14T23:04:14.150Z,96.50
2022-10-14T23:06:46.188Z,104.50
2022-10-14T23:09:15.576Z,95.75
2022-10-14T23:11:45.246Z,96.50
2022-10-14T23:14:14.734Z,101.50
2022-10-14T23:16:44.359Z,94.75
2022-10-14T23:19:13.939Z,95.00
2022-10-14T23:21:44.293Z,96.50
2022-10-14T23:24:14.432Z,95.25
2022-10-14T23:26:43.927Z,97.75
2022-10-14T23:29:13.548Z,91.25
2022-10-14T23:31:43.418Z,103.75
2022-10-14T23:34:14.483Z,88.00
2022-10-14T23:36:44.549Z,91.50
2022-10-14T23:39:17.837Z,91.50
2022-10-14T23:41:47.544Z,93.00
2022-10-14T23:44:17.016Z,95.25
2022-10-14T23:46:47.973Z,91.00
2022-10-14T23:49:26.215Z,91.00
2022-10-14T23:51:57.728Z,94.75
2022-10-14T23:54:27.162Z,95.00
2022-10-14T23:56:56.696Z,90.50
2022-10-14T23:59:27.193Z,93.00
